createdAt,value
2022-08-02T00:02:20.320Z,0
2022-08-02T00:08:40.364Z,0
2022-08-02T00:15:03.326Z,0
2022-08-02T00:21:23.394Z,0
2022-08-02T00:27:46.357Z,0
2022-08-02T00:34:30.015Z,0
2022-08-02T00:40:29.351Z,0
2022-08-02T00:46:49.367Z,0
2022-08-02T00:53:12.358Z,0
2022-08-02T00:59:32.378Z,0
2022-08-02T01:06:02.230Z,0
2022-08-02T01:12:15.728Z,0
2022-08-02T01:18:38.360Z,0
2022-08-02T01:24:58.311Z,0
2022-08-02T01:31:21.365Z,0
2022-08-02T01:37:41.324Z,0
2022-08-02T01:44:04.354Z,0
2022-08-02T01:50:24.375Z,0
2022-08-02T01:56:47.378Z,0
2022-08-02T02:03:07.320Z,0
2022-08-02T02:09:30.384Z,0
2022-08-02T02:15:50.325Z,0
2022-08-02T02:22:13.601Z,0
2022-08-02T02:28:33.350Z,0
2022-08-02T02:34:56.413Z,0
2022-08-02T02:41:16.399Z,0
2022-08-02T02:47:40.664Z,0
2022-08-02T02:54:26.990Z,0
2022-08-02T03:00:22.352Z,0
2022-08-02T03:06:42.465Z,0
2022-08-02T03:13:05.318Z,0
2022-08-02T03:19:25.397Z,0
2022-08-02T03:25:48.384Z,0
2022-08-02T03:47:59.858Z,14
2022-08-02T03:54:19.305Z,29
2022-08-02T04:00:42.411Z,49
2022-08-02T04:07:02.425Z,78
2022-08-02T04:13:28.664Z,111
2022-08-02T04:19:45.454Z,152
2022-08-02T04:26:08.592Z,187
2022-08-02T04:32:28.434Z,303
2022-08-02T04:38:51.411Z,442
2022-08-02T04:45:11.385Z,471
2022-08-02T04:51:37.667Z,410
2022-08-02T04:57:54.405Z,382
2022-08-02T05:04:17.327Z,409
2022-08-02T05:10:37.376Z,539
2022-08-02T05:17:00.353Z,641
2022-08-02T05:23:20.330Z,716
2022-08-02T05:29:51.288Z,777
2022-08-02T05:36:03.331Z,847
2022-08-02T05:42:26.325Z,889
2022-08-02T05:48:46.410Z,889
2022-08-02T05:55:09.697Z,917
2022-08-02T06:01:29.531Z,842
2022-08-02T06:07:52.334Z,929
2022-08-02T06:14:12.452Z,894
2022-08-02T06:20:35.349Z,785
2022-08-02T06:26:55.327Z,1008
2022-08-02T06:33:18.370Z,1153
2022-08-02T06:39:38.329Z,1198
2022-08-02T06:46:54.311Z,1202
2022-08-02T06:52:24.282Z,1188
2022-08-02T06:58:44.318Z,1224
2022-08-02T07:05:04.377Z,1334
2022-08-02T07:11:27.316Z,1372
2022-08-02T07:17:47.369Z,1368
2022-08-02T07:24:10.325Z,1445
2022-08-02T07:30:30.376Z,1483
2022-08-02T07:36:53.385Z,1479
2022-08-02T07:43:13.335Z,1463
2022-08-02T07:49:36.447Z,1523
2022-08-02T07:55:56.326Z,1749
2022-08-02T08:02:19.320Z,1893
2022-08-02T08:08:39.363Z,1972
2022-08-02T08:15:02.334Z,1850
2022-08-02T08:21:22.318Z,1785
2022-08-02T08:27:45.407Z,1834
2022-08-02T08:34:05.385Z,1985
2022-08-02T08:40:28.367Z,2084
2022-08-02T08:46:48.464Z,2175
2022-08-02T08:53:12.245Z,2373
2022-08-02T09:16:52.249Z,2857
2022-08-02T09:23:12.323Z,3016
2022-08-02T09:29:38.242Z,3074
2022-08-02T09:36:05.611Z,3254
2022-08-02T09:42:18.314Z,3907
2022-08-02T09:48:38.341Z,3751
2022-08-02T09:55:01.319Z,4604
2022-08-02T10:01:26.675Z,4596
2022-08-02T10:07:45.322Z,4185
2022-08-02T10:14:05.351Z,4358
2022-08-02T10:20:28.323Z,5337
2022-08-02T10:26:48.316Z,5442
2022-08-02T10:33:12.416Z,5806
2022-08-02T10:39:32.327Z,5370
2022-08-02T10:45:55.352Z,3413
2022-08-02T10:52:15.698Z,3199
2022-08-02T10:58:38.359Z,2149
2022-08-02T11:04:58.317Z,3540
2022-08-02T11:11:22.986Z,2913
2022-08-02T11:17:41.351Z,2838
2022-08-02T11:24:04.673Z,2858
2022-08-02T11:30:26.164Z,6185
2022-08-02T11:36:47.327Z,3437
2022-08-02T11:43:07.318Z,5730
2022-08-02T11:49:30.391Z,2772
2022-08-02T11:55:50.312Z,3215
2022-08-02T12:02:13.776Z,6475
2022-08-02T12:08:33.317Z,7486
2022-08-02T12:14:56.313Z,7084
2022-08-02T12:21:16.370Z,6728
2022-08-02T12:27:39.309Z,7070
2022-08-02T12:33:59.353Z,6974
2022-08-02T12:40:25.565Z,7589
2022-08-02T12:46:45.663Z,7623
2022-08-02T12:53:05.332Z,7124
2022-08-02T12:59:25.315Z,7001
2022-08-02T13:05:56.495Z,6041
2022-08-02T13:12:08.320Z,5115
2022-08-02T13:18:31.369Z,7119
2022-08-02T13:24:56.350Z,7718
2022-08-02T13:31:34.394Z,6867
2022-08-02T13:37:34.340Z,6533
2022-08-02T13:44:01.394Z,7679
2022-08-02T13:50:17.552Z,7836
2022-08-02T13:56:41.437Z,7021
2022-08-02T14:03:01.502Z,6726
2022-08-02T14:09:24.342Z,5865
2022-08-02T14:15:44.325Z,6150
2022-08-02T14:22:10.578Z,6809
2022-08-02T14:28:27.333Z,7905
2022-08-02T14:34:50.364Z,8434
2022-08-02T14:41:10.321Z,6520
2022-08-02T15:04:16.368Z,7320
2022-08-02T15:10:39.324Z,4657
2022-08-02T15:16:59.406Z,6921
2022-08-02T15:23:22.320Z,6432
2022-08-02T15:29:42.347Z,6649
2022-08-02T15:36:05.342Z,8176
2022-08-02T15:42:30.168Z,7069
2022-08-02T15:48:48.362Z,7248
2022-08-02T15:55:08.435Z,6838
2022-08-02T16:01:32.286Z,6479
2022-08-02T16:07:51.334Z,7660
2022-08-02T16:14:14.324Z,8736
2022-08-02T16:20:34.365Z,7221
2022-08-02T16:26:57.321Z,9621
2022-08-02T16:33:17.363Z,7036
2022-08-02T16:39:40.470Z,6719
2022-08-02T16:46:00.359Z,6791
2022-08-02T16:52:23.321Z,4911
2022-08-02T16:58:44.931Z,5661
2022-08-02T17:05:07.364Z,7167
2022-08-02T17:11:26.314Z,11125
2022-08-02T17:17:49.352Z,13116
2022-08-02T17:24:09.348Z,12379
2022-08-02T17:30:32.377Z,11126
2022-08-02T17:36:54.317Z,4249
2022-08-02T17:43:17.468Z,4066
2022-08-02T17:49:42.963Z,3295
2022-08-02T17:56:00.359Z,2412
2022-08-02T18:02:20.309Z,1712
2022-08-02T18:08:43.390Z,1267
2022-08-02T18:15:06.756Z,1004
2022-08-02T18:21:26.310Z,850
2022-08-02T18:27:46.333Z,741
2022-08-02T18:34:09.315Z,642
2022-08-02T18:40:29.352Z,571
2022-08-02T18:46:52.310Z,482
2022-08-02T18:53:12.836Z,399
2022-08-02T18:59:36.761Z,306
2022-08-02T19:05:55.331Z,224
2022-08-02T19:12:28.086Z,149
2022-08-02T19:18:38.310Z,91
2022-08-02T19:25:01.763Z,50
2022-08-02T19:31:21.304Z,24
2022-08-02T19:37:44.351Z,10
2022-08-02T19:44:22.469Z,4
2022-08-02T19:50:27.369Z,1
2022-08-02T19:56:47.347Z,0
2022-08-02T20:03:10.312Z,0
2022-08-02T20:09:33.330Z,0
2022-08-02T20:15:56.624Z,0
2022-08-02T20:22:13.558Z,0
2022-08-02T20:38:24.745Z,0
2022-08-02T20:44:43.386Z,0
2022-08-02T20:51:09.665Z,0
2022-08-02T20:57:36.305Z,0
2022-08-02T21:03:52.987Z,0
2022-08-02T21:10:09.358Z,0
2022-08-02T21:16:32.305Z,0
2022-08-02T21:22:52.317Z,0
2022-08-02T21:29:15.366Z,0
2022-08-02T21:35:35.302Z,0
2022-08-02T21:41:58.351Z,0
2022-08-02T21:48:18.310Z,0
2022-08-02T21:54:45.242Z,0
2022-08-02T22:20:12.759Z,0
2022-08-02T22:26:32.304Z,0
2022-08-02T22:32:55.360Z,0
2022-08-02T22:39:18.895Z,0
2022-08-02T22:45:38.331Z,0
2022-08-02T22:51:58.401Z,0
2022-08-02T22:58:21.323Z,0
2022-08-02T23:04:41.384Z,0
2022-08-02T23:11:04.336Z,0
2022-08-02T23:17:24.372Z,0
2022-08-02T23:23:47.435Z,0
2022-08-02T23:30:07.364Z,0
2022-08-02T23:36:30.336Z,0
2022-08-02T23:42:50.326Z,0
2022-08-02T23:49:13.340Z,0
2022-08-02T23:55:33.389Z,0
